Time;durP1;ratioP1;P1;durP2;ratioP2;P2;SDS_P1;SDS_P2;PMS_P1;PMS_P2;Temp;Humidity;BMP_temperature;BMP_pressure;BME280_temperature;BME280_humidity;BME280_pressure;Samples;Min_cycle;Max_cycle;Signal;HPM_P1;HPM_P2
2022/07/21 00:00:48;;;;;;;5.22;2.47;;;15.10;99.90;;;;;;4934845;29;20394;-83
2022/07/21 00:03:16;;;;;;;8.90;2.72;;;15.10;99.90;;;;;;4934842;29;20405;-82
2022/07/21 00:05:43;;;;;;;4.00;2.33;;;15.10;99.90;;;;;;4934868;29;20847;-84
2022/07/21 00:08:12;;;;;;;5.20;2.57;;;15.10;99.90;;;;;;4935890;29;20402;-83
2022/07/21 00:10:40;;;;;;;4.50;2.70;;;15.10;99.90;;;;;;4935930;29;20980;-83
2022/07/21 00:13:08;;;;;;;5.60;2.60;;;15.10;99.90;;;;;;4935830;29;20433;-83
2022/07/21 00:15:36;;;;;;;5.90;2.97;;;15.10;99.90;;;;;;4966696;28;20496;-84
2022/07/21 00:18:03;;;;;;;9.70;2.85;;;15.10;99.90;;;;;;4935658;29;20975;-84
2022/07/21 00:20:32;;;;;;;6.55;3.22;;;15.10;99.90;;;;;;4950411;28;20756;-84
2022/07/21 00:22:59;;;;;;;9.80;3.30;;;15.10;99.90;;;;;;4935638;29;20919;-83
2022/07/21 00:25:27;;;;;;;6.05;3.03;;;15.10;99.90;;;;;;4934850;29;20413;-84
2022/07/21 00:28:02;;;;;;;5.50;2.88;;;15.10;99.90;;;;;;4964558;28;20481;-82
2022/07/21 00:30:31;;;;;;;6.75;2.67;;;15.20;99.90;;;;;;4934433;29;20464;-83
2022/07/21 00:32:59;;;;;;;5.57;3.05;;;15.10;99.90;;;;;;4935535;29;20911;-84
2022/07/21 00:35:27;;;;;;;7.20;2.80;;;15.10;99.90;;;;;;4934236;29;20417;-84
2022/07/21 00:37:54;;;;;;;6.63;3.20;;;15.00;99.90;;;;;;4932165;29;20398;-82
2022/07/21 00:40:22;;;;;;;7.85;2.90;;;15.00;99.90;;;;;;4956835;28;20407;-83
2022/07/21 00:42:50;;;;;;;7.03;2.58;;;15.00;99.90;;;;;;4930990;29;20400;-83
2022/07/21 00:45:18;;;;;;;6.33;2.90;;;15.10;99.90;;;;;;4946887;29;20478;-83
2022/07/21 00:47:46;;;;;;;6.35;3.05;;;15.00;99.90;;;;;;4926929;29;20471;-84
2022/07/21 00:50:19;;;;;;;5.50;3.15;;;15.00;99.90;;;;;;4916416;29;20946;-84
2022/07/21 00:52:48;;;;;;;6.10;3.05;;;15.00;99.90;;;;;;4926885;29;20437;-82
2022/07/21 00:55:19;;;;;;;5.95;3.00;;;15.00;99.90;;;;;;4946513;29;20399;-82
2022/07/21 00:57:48;;;;;;;7.47;3.13;;;15.00;99.90;;;;;;4924374;29;20429;-83
2022/07/21 01:00:20;;;;;;;6.35;3.10;;;15.10;99.90;;;;;;4932594;29;20844;-83
2022/07/21 01:02:48;;;;;;;6.35;2.90;;;15.00;99.90;;;;;;4946596;29;20479;-84
2022/07/21 01:05:17;;;;;;;6.28;2.90;;;15.00;99.90;;;;;;4930601;29;20398;-84
2022/07/21 01:07:47;;;;;;;6.20;3.33;;;15.00;99.90;;;;;;4930934;29;20407;-84
2022/07/21 01:10:17;;;;;;;4.68;3.25;;;15.00;99.90;;;;;;4946504;29;20782;-83
2022/07/21 01:12:44;;;;;;;4.55;3.38;;;15.00;99.90;;;;;;4932666;29;20401;-83
2022/07/21 01:15:14;;;;;;;5.82;3.30;;;15.10;99.90;;;;;;4920940;29;20399;-82
2022/07/21 01:17:42;;;;;;;6.57;3.60;;;15.00;99.90;;;;;;4919657;29;20913;-82
2022/07/21 01:20:13;;;;;;;7.68;3.35;;;14.90;99.90;;;;;;4921881;29;20415;-83
2022/07/21 01:22:43;;;;;;;6.03;3.50;;;14.90;99.90;;;;;;4946028;29;20533;-82
2022/07/21 01:25:11;;;;;;;5.75;3.85;;;14.90;99.90;;;;;;4915591;29;20434;-83
2022/07/21 01:27:39;;;;;;;6.15;3.75;;;15.00;99.90;;;;;;4946048;29;20419;-82
2022/07/21 01:30:08;;;;;;;5.80;3.30;;;15.00;99.90;;;;;;4915631;29;20396;-82
2022/07/21 01:32:39;;;;;;;6.90;3.20;;;14.90;99.90;;;;;;4930088;29;20766;-83
2022/07/21 01:35:09;;;;;;;6.50;3.57;;;14.90;99.90;;;;;;4930059;29;20886;-83
2022/07/21 01:37:40;;;;;;;6.10;3.50;;;14.90;99.90;;;;;;4929939;29;20905;-83
2022/07/21 01:42:54;;;;;;;6.45;3.90;;;14.90;99.90;;;;;;4915363;29;20396;-83
2022/07/21 01:45:23;;;;;;;5.20;3.40;;;15.00;99.90;;;;;;4915294;29;20414;-84
2022/07/21 01:47:51;;;;;;;6.45;3.38;;;15.00;99.90;;;;;;4925685;29;20434;-83
2022/07/21 01:50:20;;;;;;;7.78;3.83;;;14.90;99.90;;;;;;4930020;29;20811;-82
2022/07/21 01:52:48;;;;;;;7.88;3.63;;;14.90;99.90;;;;;;4915512;29;20403;-83
2022/07/21 01:55:16;;;;;;;7.53;4.13;;;14.90;99.90;;;;;;4915318;29;20408;-83
2022/07/21 01:57:44;;;;;;;8.43;4.10;;;14.90;99.90;;;;;;4945730;29;20399;-83
2022/07/21 02:00:11;;;;;;;8.98;4.30;;;14.90;99.90;;;;;;4929785;29;20484;-83
2022/07/21 02:02:39;;;;;;;7.25;3.65;;;14.90;99.90;;;;;;4915219;29;20414;-83
2022/07/21 02:05:07;;;;;;;13.57;3.70;;;14.90;99.90;;;;;;4915324;29;20387;-84
2022/07/21 02:07:35;;;;;;;7.20;3.10;;;14.90;99.90;;;;;;4915298;29;20395;-81
2022/07/21 02:10:03;;;;;;;5.25;3.75;;;14.90;99.90;;;;;;4915346;29;20466;-84
2022/07/21 02:12:31;;;;;;;9.45;3.88;;;14.80;99.90;;;;;;4915496;29;20904;-84
2022/07/21 02:14:58;;;;;;;6.45;3.53;;;14.90;99.90;;;;;;4915185;29;20395;-83
2022/07/21 02:17:26;;;;;;;12.65;3.83;;;14.90;99.90;;;;;;4929916;29;20499;-84
2022/07/21 02:19:53;;;;;;;6.47;3.75;;;14.90;99.90;;;;;;4915138;29;20770;-84
2022/07/21 02:22:21;;;;;;;7.10;3.97;;;14.90;99.90;;;;;;4930005;29;20420;-82
2022/07/21 02:24:48;;;;;;;6.95;3.75;;;14.90;99.90;;;;;;4945757;29;20403;-84
2022/07/21 02:27:16;;;;;;;8.20;3.88;;;14.90;99.90;;;;;;4945922;29;20399;-84
2022/07/21 02:29:45;;;;;;;8.32;3.65;;;14.80;99.90;;;;;;4929536;29;20889;-85
2022/07/21 02:32:12;;;;;;;9.23;4.40;;;14.90;99.90;;;;;;4915097;29;20903;-84
2022/07/21 02:34:40;;;;;;;8.98;4.07;;;14.90;99.90;;;;;;4929644;29;20403;-84
2022/07/21 02:37:08;;;;;;;5.63;3.40;;;14.90;99.90;;;;;;4915017;29;20427;-84
2022/07/21 02:39:35;;;;;;;8.53;3.77;;;14.90;99.90;;;;;;4914966;29;20414;-83
2022/07/21 02:42:03;;;;;;;7.13;3.70;;;14.90;99.90;;;;;;4948212;28;20442;-84
2022/07/21 02:44:31;;;;;;;5.82;3.40;;;14.90;99.90;;;;;;4944728;29;20890;-84
2022/07/21 02:46:58;;;;;;;5.88;3.47;;;14.90;99.90;;;;;;4952714;29;20408;-83
2022/07/21 02:49:26;;;;;;;7.25;3.78;;;14.90;99.90;;;;;;4953077;28;20495;-84
2022/07/21 02:51:53;;;;;;;5.63;3.10;;;14.90;99.90;;;;;;4953080;28;20898;-84
2022/07/21 02:54:21;;;;;;;7.13;3.60;;;14.90;99.90;;;;;;4983823;28;20736;-84
2022/07/21 02:56:48;;;;;;;7.93;3.22;;;14.90;99.90;;;;;;4934083;28;20410;-84
2022/07/21 02:59:16;;;;;;;8.25;3.85;;;14.90;99.90;;;;;;4934000;29;20406;-82
2022/07/21 03:01:44;;;;;;;7.03;3.45;;;14.90;99.90;;;;;;4937043;29;20402;-84
2022/07/21 03:04:11;;;;;;;6.90;3.50;;;14.90;99.90;;;;;;4937274;29;20448;-84
2022/07/21 03:06:40;;;;;;;7.33;3.67;;;14.90;99.90;;;;;;4937140;29;20817;-83
2022/07/21 03:09:08;;;;;;;7.38;3.60;;;14.90;99.90;;;;;;4937006;29;20426;-84
2022/07/21 03:11:35;;;;;;;5.32;3.58;;;14.90;99.90;;;;;;4967873;28;20455;-85
2022/07/21 03:14:03;;;;;;;5.85;3.22;;;14.90;99.90;;;;;;4951684;29;20735;-84
2022/07/21 03:16:32;;;;;;;9.00;3.00;;;14.90;99.90;;;;;;4935824;29;20398;-85
2022/07/21 03:18:59;;;;;;;6.65;3.40;;;15.00;99.90;;;;;;4935590;29;20490;-84
2022/07/21 03:21:27;;;;;;;6.53;3.80;;;15.00;99.90;;;;;;4936709;29;20403;-83
2022/07/21 03:23:54;;;;;;;5.97;3.20;;;15.00;99.90;;;;;;4935506;29;20401;-83
2022/07/21 03:26:22;;;;;;;8.07;3.45;;;15.00;99.90;;;;;;4967444;28;20405;-83
2022/07/21 03:28:50;;;;;;;7.07;3.20;;;14.90;99.90;;;;;;4951228;29;20398;-84
2022/07/21 03:31:18;;;;;;;7.25;3.15;;;15.00;99.90;;;;;;4935344;29;20436;-83
2022/07/21 03:33:45;;;;;;;5.85;3.45;;;15.00;99.90;;;;;;4967293;28;20485;-84
2022/07/21 03:36:13;;;;;;;5.63;3.42;;;15.00;99.90;;;;;;4936656;29;20398;-84
2022/07/21 03:38:41;;;;;;;7.60;3.33;;;15.00;99.90;;;;;;4951281;29;20402;-84
2022/07/21 03:41:08;;;;;;;6.82;3.13;;;15.00;99.90;;;;;;4936554;29;20421;-84
2022/07/21 03:43:39;;;;;;;6.95;3.30;;;15.00;99.90;;;;;;4936556;29;20397;-83
2022/07/21 03:46:07;;;;;;;4.82;3.10;;;15.00;99.90;;;;;;4930969;29;20412;-83
2022/07/21 03:48:34;;;;;;;7.03;3.47;;;15.10;99.90;;;;;;4925763;29;20793;-82
2022/07/21 03:51:02;;;;;;;7.03;3.15;;;15.10;99.90;;;;;;4947847;29;20395;-83
2022/07/21 03:53:30;;;;;;;5.75;3.30;;;15.20;99.90;;;;;;4931801;29;20495;-83
2022/07/21 03:55:57;;;;;;;5.30;3.00;;;15.20;99.90;;;;;;4947601;29;20450;-84
2022/07/21 03:58:25;;;;;;;4.70;3.25;;;15.20;99.90;;;;;;4931809;29;20769;-84
2022/07/21 04:00:53;;;;;;;7.78;3.10;;;15.20;99.90;;;;;;4931606;29;20419;-84
2022/07/21 04:03:21;;;;;;;6.15;3.10;;;15.20;99.90;;;;;;4942503;29;20404;-83
2022/07/21 04:05:49;;;;;;;5.05;2.92;;;15.20;99.90;;;;;;4948909;29;20482;-84
2022/07/21 04:08:16;;;;;;;6.35;3.05;;;15.20;99.90;;;;;;4934814;29;20394;-83
2022/07/21 04:10:44;;;;;;;6.05;3.13;;;15.20;99.90;;;;;;4935517;29;20440;-82
2022/07/21 04:13:13;;;;;;;5.93;3.00;;;15.30;99.90;;;;;;4966418;28;20457;-83
2022/07/21 04:15:41;;;;;;;5.72;3.40;;;15.30;99.90;;;;;;4934555;29;20542;-81
2022/07/21 04:18:09;;;;;;;5.87;3.03;;;15.30;99.90;;;;;;4935902;29;20492;-84
2022/07/21 04:20:37;;;;;;;5.13;3.17;;;15.30;99.90;;;;;;4935953;29;20410;-83
2022/07/21 04:23:05;;;;;;;6.45;3.60;;;15.30;99.90;;;;;;4935629;29;20968;-83
2022/07/21 04:25:33;;;;;;;7.00;3.63;;;15.40;99.90;;;;;;4935519;29;20390;-83
2022/07/21 04:28:01;;;;;;;7.00;3.47;;;15.50;99.90;;;;;;4934481;29;20962;-82
2022/07/21 04:30:29;;;;;;;5.32;3.20;;;15.50;99.90;;;;;;4935516;29;20481;-84
2022/07/21 04:32:56;;;;;;;5.82;3.55;;;15.50;99.90;;;;;;4935434;29;20398;-83
2022/07/21 04:35:24;;;;;;;6.28;3.40;;;15.60;99.90;;;;;;4935444;29;20489;-83
2022/07/21 04:37:52;;;;;;;5.18;3.00;;;15.60;99.90;;;;;;4935290;29;20896;-83
2022/07/21 04:40:20;;;;;;;4.97;3.07;;;15.60;99.90;;;;;;4935207;29;20490;-84
2022/07/21 04:42:48;;;;;;;6.10;3.25;;;15.70;99.90;;;;;;4935214;29;20393;-83
2022/07/21 04:45:16;;;;;;;4.87;2.97;;;15.70;99.90;;;;;;4933803;29;20489;-82
2022/07/21 04:47:51;;;;;;;4.80;2.83;;;15.80;99.90;;;;;;4933974;29;20409;-84
2022/07/21 04:50:21;;;;;;;4.45;2.78;;;15.80;99.90;;;;;;4965858;28;20972;-83
2022/07/21 04:52:49;;;;;;;4.95;3.00;;;15.80;99.90;;;;;;4949843;29;20402;-84
2022/07/21 04:55:17;;;;;;;5.47;2.97;;;15.80;99.90;;;;;;4933846;29;20402;-82
2022/07/21 04:57:50;;;;;;;6.80;3.13;;;15.90;99.90;;;;;;4935052;29;20401;-83
2022/07/21 05:00:21;;;;;;;4.88;2.63;;;15.90;99.90;;;;;;4934937;29;20421;-83
2022/07/21 05:02:50;;;;;;;5.05;2.90;;;16.00;99.90;;;;;;4935009;29;20398;-83
2022/07/21 05:05:18;;;;;;;6.15;3.15;;;16.10;99.90;;;;;;4934068;29;20394;-82
2022/07/21 05:07:46;;;;;;;4.97;2.80;;;16.10;99.90;;;;;;4942985;29;20457;-83
2022/07/21 05:10:15;;;;;;;4.32;2.80;;;16.20;99.90;;;;;;4934965;29;20396;-84
2022/07/21 05:12:43;;;;;;;3.55;2.50;;;16.20;99.90;;;;;;4964468;28;20754;-83
2022/07/21 05:15:11;;;;;;;5.25;2.78;;;16.30;99.90;;;;;;4923980;29;20803;-83
2022/07/21 05:17:40;;;;;;;3.15;2.20;;;16.30;99.90;;;;;;4915638;29;20476;-83
2022/07/21 05:20:10;;;;;;;3.70;2.40;;;16.40;99.90;;;;;;4915730;29;20423;-84
2022/07/21 05:22:38;;;;;;;3.75;2.30;;;16.40;99.90;;;;;;4945610;28;20408;-83
2022/07/21 05:25:06;;;;;;;3.22;2.08;;;16.40;99.90;;;;;;4946033;29;20431;-83
2022/07/21 05:27:34;;;;;;;3.33;2.22;;;16.60;99.90;;;;;;4915657;29;20490;-82
2022/07/21 05:30:03;;;;;;;3.70;1.92;;;16.60;99.90;;;;;;4915703;29;20396;-83
2022/07/21 05:32:31;;;;;;;4.68;1.90;;;16.60;99.90;;;;;;4939499;29;20495;-83
2022/07/21 05:34:59;;;;;;;4.25;2.00;;;16.60;99.90;;;;;;4953845;28;20392;-83
2022/07/21 05:37:27;;;;;;;4.15;2.33;;;16.60;99.90;;;;;;4952540;29;20399;-83
2022/07/21 05:39:55;;;;;;;5.07;2.25;;;16.60;99.90;;;;;;4953538;28;20408;-83
2022/07/21 05:42:22;;;;;;;3.35;2.00;;;16.70;99.90;;;;;;4952482;29;20392;-83
2022/07/21 05:44:50;;;;;;;2.97;2.00;;;16.70;99.90;;;;;;4952414;29;20404;-82
2022/07/21 05:47:17;;;;;;;2.90;1.80;;;16.80;99.90;;;;;;4953614;28;20388;-83
2022/07/21 05:49:45;;;;;;;4.22;1.95;;;16.80;99.90;;;;;;4984006;28;20937;-84
2022/07/21 05:52:13;;;;;;;2.72;2.03;;;16.80;99.90;;;;;;4952292;29;20403;-83
2022/07/21 05:54:40;;;;;;;4.18;1.90;;;16.90;99.90;;;;;;4984359;28;20420;-82
2022/07/21 05:57:08;;;;;;;3.67;2.00;;;16.90;99.90;;;;;;4952352;28;20406;-83
2022/07/21 05:59:35;;;;;;;3.13;2.00;;;17.10;99.90;;;;;;4953568;29;20404;-84
2022/07/21 06:02:03;;;;;;;3.63;2.08;;;17.10;99.90;;;;;;4953410;29;20791;-82
2022/07/21 06:04:30;;;;;;;3.55;1.85;;;17.00;99.90;;;;;;4952285;28;20399;-83
2022/07/21 06:06:58;;;;;;;2.83;1.50;;;17.00;99.90;;;;;;4953353;28;20481;-82
2022/07/21 06:09:26;;;;;;;3.63;1.70;;;17.10;99.90;;;;;;4952276;29;20777;-83
2022/07/21 06:11:53;;;;;;;2.20;1.65;;;17.10;99.90;;;;;;4984062;28;20400;-83
2022/07/21 06:14:21;;;;;;;4.40;1.63;;;17.10;99.90;;;;;;4953461;28;20399;-83
2022/07/21 06:16:49;;;;;;;5.05;1.60;;;17.20;99.90;;;;;;4952666;28;20763;-83
2022/07/21 06:19:17;;;;;;;3.25;1.63;;;17.30;99.90;;;;;;4951857;29;20403;-83
2022/07/21 06:21:45;;;;;;;2.83;1.58;;;17.30;99.90;;;;;;4952274;29;20478;-84
2022/07/21 06:24:14;;;;;;;2.85;1.77;;;17.30;99.90;;;;;;4984068;28;20471;-83
2022/07/21 06:26:41;;;;;;;2.88;1.60;;;17.20;99.90;;;;;;4953396;28;20392;-83
2022/07/21 06:29:09;;;;;;;3.10;1.63;;;17.30;99.90;;;;;;4953297;28;20395;-84
2022/07/21 06:31:37;;;;;;;2.97;1.58;;;17.40;99.90;;;;;;4951726;29;20404;-82
2022/07/21 06:34:05;;;;;;;2.03;1.33;;;17.40;99.90;;;;;;4969697;28;20396;-84
2022/07/21 06:36:33;;;;;;;2.45;1.60;;;17.50;99.90;;;;;;4956902;28;20402;-83
2022/07/21 06:39:00;;;;;;;3.05;1.55;;;17.50;99.90;;;;;;4956816;28;20396;-83
2022/07/21 06:41:28;;;;;;;3.22;1.50;;;17.70;99.90;;;;;;4955553;29;20412;-83
2022/07/21 06:43:56;;;;;;;3.35;1.60;;;17.70;99.90;;;;;;4944004;28;20416;-84
2022/07/21 06:46:24;;;;;;;4.38;1.70;;;17.70;99.90;;;;;;4984155;28;20499;-83
2022/07/21 06:48:51;;;;;;;3.70;1.20;;;17.70;99.90;;;;;;4952112;29;20940;-83
2022/07/21 06:51:19;;;;;;;4.07;1.47;;;17.80;99.90;;;;;;4941703;29;20404;-84
2022/07/21 06:53:46;;;;;;;5.57;1.50;;;17.90;99.90;;;;;;4955226;29;20399;-83
2022/07/21 06:56:16;;;;;;;2.10;1.23;;;18.00;99.90;;;;;;4943549;29;20456;-83
2022/07/21 06:58:43;;;;;;;2.42;1.30;;;17.90;99.90;;;;;;4967330;28;20394;-83
2022/07/21 07:01:18;;;;;;;3.30;1.30;;;18.00;99.90;;;;;;4936240;29;20424;-82
2022/07/21 07:03:46;;;;;;;2.70;1.20;;;18.20;99.90;;;;;;4927345;29;20492;-83
2022/07/21 07:06:15;;;;;;;2.95;1.30;;;18.20;99.90;;;;;;4937084;29;20398;-83
2022/07/21 07:08:43;;;;;;;2.60;1.25;;;18.40;99.90;;;;;;4936985;29;20402;-82
2022/07/21 07:11:11;;;;;;;2.10;1.20;;;18.40;99.90;;;;;;4951676;29;20398;-84
2022/07/21 07:13:39;;;;;;;4.85;1.38;;;18.50;99.90;;;;;;4944274;29;20925;-84
2022/07/21 07:16:23;;;;;;;3.10;1.35;;;18.50;99.90;;;;;;4940473;29;20942;-84
2022/07/21 07:18:51;;;;;;;3.70;1.10;;;18.50;99.90;;;;;;4951000;29;20469;-84
2022/07/21 07:21:19;;;;;;;2.30;1.00;;;18.60;99.90;;;;;;4936734;29;20902;-84
2022/07/21 07:23:46;;;;;;;2.20;1.25;;;18.60;99.90;;;;;;4936792;29;20390;-83
2022/07/21 07:26:14;;;;;;;3.00;1.30;;;18.60;99.90;;;;;;4936794;29;20420;-83
2022/07/21 07:28:42;;;;;;;2.90;1.17;;;18.70;99.90;;;;;;4935692;29;20889;-83
2022/07/21 07:31:10;;;;;;;2.72;1.30;;;18.80;99.90;;;;;;4936655;29;20402;-84
2022/07/21 07:33:38;;;;;;;2.05;1.40;;;18.70;99.90;;;;;;4936661;29;20464;-82
2022/07/21 07:36:08;;;;;;;2.27;1.30;;;18.80;99.90;;;;;;4967595;28;20426;-83
2022/07/21 07:38:35;;;;;;;3.10;1.50;;;18.90;99.90;;;;;;4935460;29;20435;-83
2022/07/21 07:41:03;;;;;;;3.47;1.30;;;19.00;99.90;;;;;;4927222;29;20505;-83
2022/07/21 07:43:31;;;;;;;2.38;1.50;;;19.00;99.90;;;;;;4941495;29;20393;-83
2022/07/21 07:46:01;;;;;;;1.95;1.20;;;19.00;99.90;;;;;;4954577;28;20415;-84
2022/07/21 07:48:31;;;;;;;2.60;1.20;;;19.20;99.90;;;;;;4955366;28;20914;-83
2022/07/21 07:50:58;;;;;;;3.33;1.08;;;19.10;99.90;;;;;;4955389;29;20921;-82
2022/07/21 07:53:26;;;;;;;2.25;1.10;;;19.20;99.90;;;;;;4955400;29;20411;-83
2022/07/21 07:55:53;;;;;;;2.90;1.30;;;19.30;99.90;;;;;;4948137;29;20417;-83
2022/07/21 07:58:21;;;;;;;1.90;1.10;;;19.30;99.90;;;;;;4942654;29;20752;-83
2022/07/21 08:00:49;;;;;;;2.08;1.20;;;19.40;99.90;;;;;;4937915;29;20409;-84
2022/07/21 08:03:23;;;;;;;3.00;1.15;;;19.60;99.90;;;;;;4964154;28;20414;-84
2022/07/21 08:05:52;;;;;;;3.67;1.20;;;19.50;99.90;;;;;;4935152;29;20461;-84
2022/07/21 08:08:20;;;;;;;3.65;1.58;;;19.50;99.90;;;;;;4954517;29;20391;-83
2022/07/21 08:10:48;;;;;;;3.05;1.23;;;19.70;99.90;;;;;;4953037;29;20403;-83
2022/07/21 08:13:17;;;;;;;3.63;1.23;;;19.70;99.90;;;;;;4935873;29;20897;-82
2022/07/21 08:15:46;;;;;;;2.72;0.98;;;19.70;99.90;;;;;;4935905;29;20397;-83
2022/07/21 08:18:14;;;;;;;3.83;1.30;;;19.70;99.90;;;;;;4934072;29;20397;-82
2022/07/21 08:20:42;;;;;;;3.55;1.08;;;19.70;99.90;;;;;;4948175;29;20477;-84
2022/07/21 08:23:11;;;;;;;4.00;1.50;;;19.80;99.90;;;;;;4934511;29;20390;-82
2022/07/21 08:25:41;;;;;;;3.15;1.48;;;19.80;99.90;;;;;;4934838;29;20409;-83
2022/07/21 08:28:09;;;;;;;2.13;1.35;;;19.90;99.90;;;;;;4931362;29;20767;-83
2022/07/21 08:30:37;;;;;;;4.88;1.60;;;19.80;99.90;;;;;;4968564;28;20397;-84
2022/07/21 08:33:05;;;;;;;2.78;1.60;;;19.90;99.90;;;;;;4947746;29;20404;-84
2022/07/21 08:35:34;;;;;;;2.43;1.43;;;20.10;99.90;;;;;;4952818;29;20412;-82
2022/07/21 08:38:05;;;;;;;2.70;1.45;;;20.50;99.90;;;;;;4935415;29;20400;-84
2022/07/21 08:40:36;;;;;;;4.00;1.40;;;20.30;99.90;;;;;;4947624;29;20416;-84
2022/07/21 08:43:06;;;;;;;2.70;1.70;;;20.40;99.90;;;;;;4935077;29;20401;-84
2022/07/21 08:45:34;;;;;;;2.25;1.50;;;20.50;99.90;;;;;;4933776;29;20406;-83
2022/07/21 08:48:04;;;;;;;3.78;1.60;;;20.60;99.90;;;;;;4933705;29;20513;-84
2022/07/21 08:50:35;;;;;;;3.22;1.63;;;20.60;99.90;;;;;;4964878;28;20889;-85
2022/07/21 08:53:03;;;;;;;3.05;1.50;;;20.60;99.90;;;;;;4934989;29;20421;-84
2022/07/21 08:55:32;;;;;;;3.00;1.60;;;20.70;99.90;;;;;;4934112;29;20413;-83
2022/07/21 08:58:03;;;;;;;3.58;1.70;;;20.70;99.90;;;;;;4926553;29;20417;-84
2022/07/21 09:00:36;;;;;;;4.25;1.67;;;20.80;99.90;;;;;;4932833;29;20417;-83
2022/07/21 09:03:14;;;;;;;3.67;1.70;;;21.00;99.90;;;;;;4934015;29;20412;-84
2022/07/21 09:05:57;;;;;;;4.07;1.60;;;21.10;99.90;;;;;;4934930;29;20421;-84
2022/07/21 09:08:40;;;;;;;2.63;1.45;;;21.20;99.90;;;;;;4965030;28;20760;-85
2022/07/21 09:11:13;;;;;;;4.45;1.58;;;21.20;99.90;;;;;;4964437;28;20414;-84
2022/07/21 09:13:44;;;;;;;3.58;1.30;;;21.20;99.90;;;;;;4933889;29;20478;-83
2022/07/21 09:16:12;;;;;;;4.57;1.70;;;21.20;99.90;;;;;;4938530;29;20430;-84
2022/07/21 09:18:50;;;;;;;2.38;1.35;;;21.20;99.90;;;;;;4934306;29;20784;-84
2022/07/21 09:21:19;;;;;;;2.67;1.30;;;21.20;99.90;;;;;;4965344;28;20410;-85
2022/07/21 09:23:47;;;;;;;3.05;1.45;;;21.40;99.90;;;;;;4965948;28;20488;-87
2022/07/21 09:26:17;;;;;;;3.60;1.40;;;21.40;99.90;;;;;;4933952;29;20406;-85
2022/07/21 09:28:45;;;;;;;3.92;1.42;;;21.40;99.90;;;;;;4935004;29;20749;-84
2022/07/21 09:31:12;;;;;;;2.63;1.10;;;21.50;99.90;;;;;;4933821;29;20398;-84
2022/07/21 09:33:44;;;;;;;5.45;1.40;;;21.60;99.90;;;;;;4965591;28;20450;-84
2022/07/21 09:36:18;;;;;;;7.63;1.60;;;21.60;99.90;;;;;;4933674;29;20422;-87
2022/07/21 09:38:48;;;;;;;33.22;2.88;;;21.60;99.90;;;;;;4934761;29;20869;-86
2022/07/21 09:41:20;;;;;;;5.03;1.10;;;21.60;99.90;;;;;;4934650;29;20484;-83
2022/07/21 09:43:53;;;;;;;3.80;1.50;;;21.60;99.90;;;;;;4934525;29;20766;-82
2022/07/21 09:46:29;;;;;;;4.47;1.52;;;21.70;99.90;;;;;;4934229;29;20488;-84
2022/07/21 09:49:02;;;;;;;3.63;1.30;;;21.70;99.90;;;;;;4949735;29;20398;-85
2022/07/21 09:51:50;;;;;;;3.22;1.58;;;21.90;99.90;;;;;;4940249;29;20408;-85
2022/07/21 09:54:18;;;;;;;4.85;1.48;;;22.00;99.90;;;;;;4952703;29;20475;-86
2022/07/21 09:56:47;;;;;;;3.95;1.50;;;22.00;99.90;;;;;;4952424;28;20903;-85
2022/07/21 09:59:15;;;;;;;3.80;1.50;;;22.20;99.90;;;;;;4943466;29;20440;-84
2022/07/21 10:01:44;;;;;;;3.75;1.60;;;22.20;99.90;;;;;;4945750;29;20419;-84
2022/07/21 10:04:13;;;;;;;4.45;1.65;;;22.30;99.90;;;;;;4915395;29;20404;-82
2022/07/21 10:06:41;;;;;;;8.00;1.60;;;22.50;99.90;;;;;;4920667;29;20465;-84
2022/07/21 10:09:10;;;;;;;2.20;1.52;;;22.50;99.90;;;;;;4947246;29;20475;-85
2022/07/21 10:11:41;;;;;;;3.47;1.80;;;22.60;99.90;;;;;;4957429;29;20406;-85
2022/07/21 10:14:12;;;;;;;5.50;1.90;;;22.60;99.90;;;;;;4972109;28;20399;-85
2022/07/21 10:16:40;;;;;;;5.45;2.00;;;22.70;99.90;;;;;;4956145;29;20462;-85
2022/07/21 10:19:34;;;;;;;4.38;1.90;;;22.70;99.90;;;;;;4949196;29;20412;-84
2022/07/21 10:22:13;;;;;;;4.32;1.92;;;22.70;99.90;;;;;;4957436;28;20482;-85
2022/07/21 10:24:41;;;;;;;4.88;2.00;;;22.70;99.90;;;;;;4972230;28;20785;-84
2022/07/21 10:27:12;;;;;;;4.30;2.03;;;22.80;99.90;;;;;;4957164;29;20402;-85
2022/07/21 10:29:53;;;;;;;4.20;1.95;;;22.90;99.90;;;;;;4956016;29;20822;-85
2022/07/21 10:32:33;;;;;;;4.30;2.30;;;22.80;99.90;;;;;;4956786;29;20463;-83
2022/07/21 10:35:22;;;;;;;3.95;1.83;;;22.90;99.90;;;;;;4957015;28;20407;-85
2022/07/21 10:37:50;;;;;;;11.57;2.33;;;22.90;99.90;;;;;;4956831;29;20427;-85
2022/07/21 10:40:20;;;;;;;6.55;2.10;;;23.00;99.90;;;;;;4941730;29;20409;-84
2022/07/21 10:43:00;;;;;;;4.25;2.00;;;23.10;99.90;;;;;;4937462;29;20413;-85
2022/07/21 10:45:34;;;;;;;4.63;2.55;;;23.20;99.90;;;;;;4936385;29;20832;-84
2022/07/21 10:48:04;;;;;;;3.60;2.00;;;23.20;99.90;;;;;;4952057;28;20908;-84
2022/07/21 10:50:35;;;;;;;5.18;2.28;;;23.10;99.90;;;;;;4917942;29;20418;-82
2022/07/21 10:53:16;;;;;;;5.77;2.30;;;23.30;99.90;;;;;;4949705;29;20433;-85
2022/07/21 10:55:52;;;;;;;6.20;2.40;;;23.40;99.90;;;;;;4936220;29;20457;-82
2022/07/21 10:58:36;;;;;;;6.20;2.50;;;23.50;99.90;;;;;;4937254;29;20390;-83
2022/07/21 11:01:20;;;;;;;7.22;2.55;;;23.60;99.90;;;;;;4937311;29;20414;-84
2022/07/21 11:04:08;;;;;;;5.50;2.30;;;23.70;99.90;;;;;;4937243;29;20422;-84
2022/07/21 11:06:40;;;;;;;5.68;2.38;;;23.70;99.90;;;;;;4937188;29;20402;-84
2022/07/21 11:09:11;;;;;;;4.78;2.40;;;23.70;99.90;;;;;;4935973;29;20394;-85
2022/07/21 11:11:57;;;;;;;5.97;2.70;;;23.80;99.90;;;;;;4937242;29;20482;-84
2022/07/21 11:14:44;;;;;;;5.28;2.40;;;23.80;99.90;;;;;;4936957;29;20434;-84
2022/07/21 11:17:28;;;;;;;13.70;2.80;;;23.90;99.90;;;;;;4937179;29;20402;-85
2022/07/21 11:19:56;;;;;;;5.00;2.42;;;23.90;99.90;;;;;;4934995;29;20414;-84
2022/07/21 11:22:29;;;;;;;5.23;2.60;;;24.00;99.90;;;;;;4923892;29;20643;-84
2022/07/21 11:25:04;;;;;;;5.68;2.63;;;24.10;99.90;;;;;;4965594;28;20442;-83
2022/07/21 11:27:34;;;;;;;4.55;2.50;;;24.20;99.90;;;;;;4934557;29;20413;-84
2022/07/21 11:30:05;;;;;;;6.10;2.60;;;24.30;99.90;;;;;;4936701;29;20397;-83
2022/07/21 11:32:34;;;;;;;5.57;2.60;;;24.30;99.90;;;;;;4936623;29;20401;-84
2022/07/21 11:35:05;;;;;;;5.57;2.77;;;24.40;99.90;;;;;;4936640;29;20402;-84
2022/07/21 11:37:44;;;;;;;6.57;2.57;;;24.40;99.90;;;;;;4936794;29;20426;-84
2022/07/21 11:40:19;;;;;;;5.25;2.28;;;24.50;99.90;;;;;;4967518;28;20402;-83
2022/07/21 11:42:50;;;;;;;17.35;4.05;;;24.40;99.90;;;;;;4936487;29;20417;-84
2022/07/21 11:45:18;;;;;;;7.57;2.85;;;24.60;99.90;;;;;;4936266;29;20472;-83
2022/07/21 11:47:50;;;;;;;6.40;2.73;;;24.60;99.90;;;;;;4951339;29;20408;-84
2022/07/21 11:50:19;;;;;;;8.13;3.00;;;24.70;99.90;;;;;;4935438;29;20485;-84
2022/07/21 11:52:47;;;;;;;5.13;3.20;;;24.80;99.90;;;;;;4938485;29;20417;-85
2022/07/21 11:55:16;;;;;;;5.05;2.92;;;24.80;99.90;;;;;;4935791;29;20421;-84
2022/07/21 11:57:45;;;;;;;6.50;2.90;;;24.90;99.90;;;;;;4950585;28;20413;-85
2022/07/21 12:00:15;;;;;;;6.05;3.10;;;25.10;99.90;;;;;;4936278;29;20406;-84
2022/07/21 12:02:48;;;;;;;5.45;3.00;;;25.20;99.90;;;;;;4935328;29;20465;-85
2022/07/21 12:05:16;;;;;;;5.87;3.10;;;25.30;99.90;;;;;;4935041;29;20443;-85
2022/07/21 12:07:48;;;;;;;5.35;3.25;;;25.20;99.90;;;;;;4932838;29;20474;-83
2022/07/21 12:10:29;;;;;;;5.03;3.13;;;25.20;99.90;;;;;;4935018;29;20429;-84
2022/07/21 12:13:02;;;;;;;4.43;3.47;;;25.40;99.90;;;;;;4938627;29;20398;-85
2022/07/21 12:15:33;;;;;;;6.15;3.40;;;25.40;99.90;;;;;;4965686;28;20594;-83
2022/07/21 12:18:04;;;;;;;4.93;3.50;;;25.60;99.90;;;;;;4926067;29;20854;-84
2022/07/21 12:20:40;;;;;;;10.38;3.78;;;25.50;99.90;;;;;;4917271;29;20436;-86
2022/07/21 12:23:24;;;;;;;6.80;3.72;;;25.50;99.90;;;;;;4957441;28;20413;-85
2022/07/21 12:25:54;;;;;;;6.85;3.67;;;25.40;99.90;;;;;;4941225;29;20386;-84
2022/07/21 12:28:52;;;;;;;8.35;4.07;;;25.70;99.90;;;;;;4934530;29;20880;-84
2022/07/21 12:31:21;;;;;;;7.78;4.22;;;25.80;99.90;;;;;;4935289;29;20473;-84
2022/07/21 12:33:52;;;;;;;7.03;3.92;;;25.80;99.90;;;;;;4934281;29;20417;-84
2022/07/21 12:36:43;;;;;;;8.55;4.25;;;25.90;99.90;;;;;;4966256;28;20397;-84
2022/07/21 12:42:32;;;;;;;7.37;4.37;;;25.90;99.90;;;;;;4934123;29;20406;-84
2022/07/21 12:45:11;;;;;;;7.40;4.10;;;26.10;99.90;;;;;;4930459;29;20396;-85
2022/07/21 12:47:39;;;;;;;6.60;3.93;;;26.10;99.90;;;;;;4916667;29;20431;-84
2022/07/21 12:50:09;;;;;;;7.00;4.20;;;26.20;99.90;;;;;;4930804;29;20398;-85
2022/07/21 12:52:46;;;;;;;8.20;4.35;;;26.20;99.90;;;;;;4951084;29;20440;-84
2022/07/21 12:55:14;;;;;;;5.43;4.07;;;26.20;99.90;;;;;;4954414;29;20479;-83
2022/07/21 12:57:42;;;;;;;5.03;4.32;;;26.10;99.90;;;;;;4954034;29;20483;-85
2022/07/21 13:00:10;;;;;;;9.93;5.00;;;26.30;99.90;;;;;;4935263;29;20393;-84
2022/07/21 13:02:53;;;;;;;5.80;4.35;;;26.20;99.90;;;;;;4933792;29;20468;-84
2022/07/21 13:05:22;;;;;;;5.93;4.55;;;26.20;99.90;;;;;;4966015;28;20754;-84